sensor_id;sensor_type;location;lat;lon;timestamp;temperature;humidity
42099;DHT22;27758;55.900;8.516;2023-07-29T00:02:06;17.30;99.90
42099;DHT22;27758;55.900;8.516;2023-07-29T00:04:31;17.30;99.90
42099;DHT22;27758;55.900;8.516;2023-07-29T00:06:57;17.30;99.90
42099;DHT22;27758;55.900;8.516;2023-07-29T00:09:23;17.30;99.90
42099;DHT22;27758;55.900;8.516;2023-07-29T00:11:48;17.30;99.90
42099;DHT22;27758;55.900;8.516;2023-07-29T00:14:14;17.30;99.90
42099;DHT22;27758;55.900;8.516;2023-07-29T00:16:40;17.40;99.90
42099;DHT22;27758;55.900;8.516;2023-07-29T00:19:06;17.40;99.90
42099;DHT22;27758;55.900;8.516;2023-07-29T00:21:32;17.40;99.90
42099;DHT22;27758;55.900;8.516;2023-07-29T00:23:57;17.40;99.90
42099;DHT22;27758;55.900;8.516;2023-07-29T00:26:25;17.40;99.90
42099;DHT22;27758;55.900;8.516;2023-07-29T00:28:53;17.40;99.90
42099;DHT22;27758;55.900;8.516;2023-07-29T00:31:18;17.40;99.90
42099;DHT22;27758;55.900;8.516;2023-07-29T00:33:44;17.50;99.90
42099;DHT22;27758;55.900;8.516;2023-07-29T00:36:10;17.50;99.90
42099;DHT22;27758;55.900;8.516;2023-07-29T00:38:35;17.50;99.90
42099;DHT22;27758;55.900;8.516;2023-07-29T00:41:02;17.50;99.90
42099;DHT22;27758;55.900;8.516;2023-07-29T00:43:29;17.30;99.90
42099;DHT22;27758;55.900;8.516;2023-07-29T00:45:54;17.30;99.90
42099;DHT22;27758;55.900;8.516;2023-07-29T00:48:23;17.30;99.90
42099;DHT22;27758;55.900;8.516;2023-07-29T00:50:49;17.20;99.90
42099;DHT22;27758;55.900;8.516;2023-07-29T00:53:15;17.30;99.90
42099;DHT22;27758;55.900;8.516;2023-07-29T00:55:41;17.30;99.90
42099;DHT22;27758;55.900;8.516;2023-07-29T00:58:07;17.30;99.90
42099;DHT22;27758;55.900;8.516;2023-07-29T01:00:33;17.30;99.90
42099;DHT22;27758;55.900;8.516;2023-07-29T01:02:59;17.40;99.90
42099;DHT22;27758;55.900;8.516;2023-07-29T01:05:29;17.40;99.90
42099;DHT22;27758;55.900;8.516;2023-07-29T01:08:21;17.40;99.90
42099;DHT22;27758;55.900;8.516;2023-07-29T01:11:17;17.30;99.90
42099;DHT22;27758;55.900;8.516;2023-07-29T01:16:39;17.30;99.90
42099;DHT22;27758;55.900;8.516;2023-07-29T01:19:06;17.30;99.90
42099;DHT22;27758;55.900;8.516;2023-07-29T01:21:36;17.20;99.90
42099;DHT22;27758;55.900;8.516;2023-07-29T01:24:02;17.20;99.90
42099;DHT22;27758;55.900;8.516;2023-07-29T01:26:28;17.20;99.90
42099;DHT22;27758;55.900;8.516;2023-07-29T01:28:56;17.20;99.90
42099;DHT22;27758;55.900;8.516;2023-07-29T01:31:30;17.20;99.90
42099;DHT22;27758;55.900;8.516;2023-07-29T01:34:44;17.30;99.90
42099;DHT22;27758;55.900;8.516;2023-07-29T01:36:51;17.20;99.90
42099;DHT22;27758;55.900;8.516;2023-07-29T01:39:19;17.20;99.90
42099;DHT22;27758;55.900;8.516;2023-07-29T01:41:48;17.20;99.90
42099;DHT22;27758;55.900;8.516;2023-07-29T01:44:14;17.10;99.90
42099;DHT22;27758;55.900;8.516;2023-07-29T01:46:40;17.20;99.90
42099;DHT22;27758;55.900;8.516;2023-07-29T01:49:06;17.20;99.90
42099;DHT22;27758;55.900;8.516;2023-07-29T01:51:31;17.20;99.90
42099;DHT22;27758;55.900;8.516;2023-07-29T01:53:57;17.30;99.90
42099;DHT22;27758;55.900;8.516;2023-07-29T01:56:25;17.30;99.90
42099;DHT22;27758;55.900;8.516;2023-07-29T01:58:50;17.30;99.90
42099;DHT22;27758;55.900;8.516;2023-07-29T02:01:16;17.40;99.90
42099;DHT22;27758;55.900;8.516;2023-07-29T02:03:42;17.30;99.90
42099;DHT22;27758;55.900;8.516;2023-07-29T02:06:07;17.30;99.90
42099;DHT22;27758;55.900;8.516;2023-07-29T02:08:33;17.20;99.90
42099;DHT22;27758;55.900;8.516;2023-07-29T02:10:59;17.30;99.90
42099;DHT22;27758;55.900;8.516;2023-07-29T02:13:27;17.30;99.90
42099;DHT22;27758;55.900;8.516;2023-07-29T02:15:52;17.30;99.90
42099;DHT22;27758;55.900;8.516;2023-07-29T02:18:18;17.40;99.90
42099;DHT22;27758;55.900;8.516;2023-07-29T02:20:44;17.40;99.90
42099;DHT22;27758;55.900;8.516;2023-07-29T02:23:15;17.40;99.90
42099;DHT22;27758;55.900;8.516;2023-07-29T02:25:42;17.30;99.90
42099;DHT22;27758;55.900;8.516;2023-07-29T02:28:08;17.30;99.90
42099;DHT22;27758;55.900;8.516;2023-07-29T02:30:34;17.20;99.90
42099;DHT22;27758;55.900;8.516;2023-07-29T02:32:59;17.20;99.90
42099;DHT22;27758;55.900;8.516;2023-07-29T02:35:29;17.30;99.90
42099;DHT22;27758;55.900;8.516;2023-07-29T02:37:55;17.20;99.90
42099;DHT22;27758;55.900;8.516;2023-07-29T02:40:20;17.20;99.90
42099;DHT22;27758;55.900;8.516;2023-07-29T02:42:48;17.10;99.90
42099;DHT22;27758;55.900;8.516;2023-07-29T02:45:13;17.10;99.90
42099;DHT22;27758;55.900;8.516;2023-07-29T02:47:39;17.00;99.90
42099;DHT22;27758;55.900;8.516;2023-07-29T02:50:05;17.00;99.90
42099;DHT22;27758;55.900;8.516;2023-07-29T02:52:31;17.10;99.90
42099;DHT22;27758;55.900;8.516;2023-07-29T02:54:56;17.00;99.90
42099;DHT22;27758;55.900;8.516;2023-07-29T02:57:22;17.00;99.90
42099;DHT22;27758;55.900;8.516;2023-07-29T02:59:48;17.20;99.90
42099;DHT22;27758;55.900;8.516;2023-07-29T03:02:14;17.10;99.90
42099;DHT22;27758;55.900;8.516;2023-07-29T03:04:41;17.10;99.90
42099;DHT22;27758;55.900;8.516;2023-07-29T03:07:07;17.10;99.90
42099;DHT22;27758;55.900;8.516;2023-07-29T03:09:33;17.10;99.90
42099;DHT22;27758;55.900;8.516;2023-07-29T03:11:58;17.00;99.90
42099;DHT22;27758;55.900;8.516;2023-07-29T03:14:24;17.10;99.90
42099;DHT22;27758;55.900;8.516;2023-07-29T03:16:50;17.00;99.90
42099;DHT22;27758;55.900;8.516;2023-07-29T03:19:16;17.00;99.90
42099;DHT22;27758;55.900;8.516;2023-07-29T03:21:42;16.90;99.90
42099;DHT22;27758;55.900;8.516;2023-07-29T03:24:07;17.00;99.90
42099;DHT22;27758;55.900;8.516;2023-07-29T03:26:33;17.10;99.90
42099;DHT22;27758;55.900;8.516;2023-07-29T03:28:59;17.10;99.90
42099;DHT22;27758;55.900;8.516;2023-07-29T03:31:24;17.00;99.90
42099;DHT22;27758;55.900;8.516;2023-07-29T03:33:50;17.00;99.90
42099;DHT22;27758;55.900;8.516;2023-07-29T03:36:16;17.00;99.90
42099;DHT22;27758;55.900;8.516;2023-07-29T03:38:41;16.90;99.90
42099;DHT22;27758;55.900;8.516;2023-07-29T03:41:08;16.90;99.90
42099;DHT22;27758;55.900;8.516;2023-07-29T03:43:34;16.90;99.90
42099;DHT22;27758;55.900;8.516;2023-07-29T03:46:00;16.90;99.90
42099;DHT22;27758;55.900;8.516;2023-07-29T03:48:26;16.80;99.90
42099;DHT22;27758;55.900;8.516;2023-07-29T03:50:51;16.90;99.90
42099;DHT22;27758;55.900;8.516;2023-07-29T03:53:17;16.90;99.90
42099;DHT22;27758;55.900;8.516;2023-07-29T03:55:43;16.90;99.90
42099;DHT22;27758;55.900;8.516;2023-07-29T03:58:09;17.00;99.90
42099;DHT22;27758;55.900;8.516;2023-07-29T04:00:35;16.90;99.90
42099;DHT22;27758;55.900;8.516;2023-07-29T04:03:00;16.90;99.90
42099;DHT22;27758;55.900;8.516;2023-07-29T04:05:26;16.90;99.90
42099;DHT22;27758;55.900;8.516;2023-07-29T04:07:52;16.80;99.90
42099;DHT22;27758;55.900;8.516;2023-07-29T04:10:19;16.80;99.90
42099;DHT22;27758;55.900;8.516;2023-07-29T04:12:45;16.90;99.90
42099;DHT22;27758;55.900;8.516;2023-07-29T04:15:10;17.00;99.90
42099;DHT22;27758;55.900;8.516;2023-07-29T04:17:36;17.00;99.90
42099;DHT22;27758;55.900;8.516;2023-07-29T04:20:02;17.00;99.90
42099;DHT22;27758;55.900;8.516;2023-07-29T04:22:28;17.00;99.90
42099;DHT22;27758;55.900;8.516;2023-07-29T04:24:54;17.10;99.90
42099;DHT22;27758;55.900;8.516;2023-07-29T04:27:19;17.10;99.90
42099;DHT22;27758;55.900;8.516;2023-07-29T04:29:45;17.20;99.90
42099;DHT22;27758;55.900;8.516;2023-07-29T04:32:11;17.20;99.90
42099;DHT22;27758;55.900;8.516;2023-07-29T04:34:36;17.20;99.90
42099;DHT22;27758;55.900;8.516;2023-07-29T04:37:02;17.20;99.90
42099;DHT22;27758;55.900;8.516;2023-07-29T04:39:28;17.30;99.90
42099;DHT22;27758;55.900;8.516;2023-07-29T04:41:53;17.30;99.90
42099;DHT22;27758;55.900;8.516;2023-07-29T04:44:19;17.30;99.90
42099;DHT22;27758;55.900;8.516;2023-07-29T04:46:45;17.30;99.90
42099;DHT22;27758;55.900;8.516;2023-07-29T04:49:10;17.30;99.90
42099;DHT22;27758;55.900;8.516;2023-07-29T04:51:36;17.30;99.90
42099;DHT22;27758;55.900;8.516;2023-07-29T04:54:02;17.30;99.90
42099;DHT22;27758;55.900;8.516;2023-07-29T04:56:28;17.40;99.90
42099;DHT22;27758;55.900;8.516;2023-07-29T04:58:54;17.40;99.90
42099;DHT22;27758;55.900;8.516;2023-07-29T05:01:20;17.40;99.90
42099;DHT22;27758;55.900;8.516;2023-07-29T05:03:45;17.50;99.90
42099;DHT22;27758;55.900;8.516;2023-07-29T05:06:11;17.40;99.90
42099;DHT22;27758;55.900;8.516;2023-07-29T05:08:37;17.50;99.90
42099;DHT22;27758;55.900;8.516;2023-07-29T05:11:02;17.60;99.90
42099;DHT22;27758;55.900;8.516;2023-07-29T05:13:28;17.70;99.90
42099;DHT22;27758;55.900;8.516;2023-07-29T05:15:54;17.60;99.90
42099;DHT22;27758;55.900;8.516;2023-07-29T05:18:20;17.60;99.90
42099;DHT22;27758;55.900;8.516;2023-07-29T05:20:47;17.70;99.90
42099;DHT22;27758;55.900;8.516;2023-07-29T05:23:12;17.70;99.90
42099;DHT22;27758;55.900;8.516;2023-07-29T05:25:38;17.70;99.90
42099;DHT22;27758;55.900;8.516;2023-07-29T05:28:04;17.70;99.90
42099;DHT22;27758;55.900;8.516;2023-07-29T05:30:30;17.80;99.90
42099;DHT22;27758;55.900;8.516;2023-07-29T05:32:59;17.70;99.90
42099;DHT22;27758;55.900;8.516;2023-07-29T05:35:25;17.80;99.90
42099;DHT22;27758;55.900;8.516;2023-07-29T05:37:51;17.90;99.90
42099;DHT22;27758;55.900;8.516;2023-07-29T05:40:16;17.90;99.90
42099;DHT22;27758;55.900;8.516;2023-07-29T05:42:42;18.00;99.90
42099;DHT22;27758;55.900;8.516;2023-07-29T05:45:09;18.00;99.90
42099;DHT22;27758;55.900;8.516;2023-07-29T05:47:36;18.10;99.90
42099;DHT22;27758;55.900;8.516;2023-07-29T05:50:02;18.10;99.90
42099;DHT22;27758;55.900;8.516;2023-07-29T05:52:33;18.10;99.90
42099;DHT22;27758;55.900;8.516;2023-07-29T05:54:59;18.20;99.90
42099;DHT22;27758;55.900;8.516;2023-07-29T05:57:25;18.30;99.90
42099;DHT22;27758;55.900;8.516;2023-07-29T05:59:51;18.30;99.90
42099;DHT22;27758;55.900;8.516;2023-07-29T06:02:16;18.40;99.90
42099;DHT22;27758;55.900;8.516;2023-07-29T06:04:42;18.40;99.90
42099;DHT22;27758;55.900;8.516;2023-07-29T06:07:08;18.40;99.90
42099;DHT22;27758;55.900;8.516;2023-07-29T06:09:34;18.40;99.90
42099;DHT22;27758;55.900;8.516;2023-07-29T06:11:59;18.30;99.90
42099;DHT22;27758;55.900;8.516;2023-07-29T06:14:25;18.40;99.90
42099;DHT22;27758;55.900;8.516;2023-07-29T06:16:51;18.30;99.90
42099;DHT22;27758;55.900;8.516;2023-07-29T06:19:18;18.30;99.90
42099;DHT22;27758;55.900;8.516;2023-07-29T06:21:44;18.40;99.90
42099;DHT22;27758;55.900;8.516;2023-07-29T06:24:09;18.40;99.90
42099;DHT22;27758;55.900;8.516;2023-07-29T06:26:35;18.50;99.90
42099;DHT22;27758;55.900;8.516;2023-07-29T06:29:01;18.40;99.90
42099;DHT22;27758;55.900;8.516;2023-07-29T06:31:26;18.50;99.90
42099;DHT22;27758;55.900;8.516;2023-07-29T06:33:54;18.60;99.90
42099;DHT22;27758;55.900;8.516;2023-07-29T06:36:20;18.60;99.90
42099;DHT22;27758;55.900;8.516;2023-07-29T06:38:45;18.50;99.90
42099;DHT22;27758;55.900;8.516;2023-07-29T06:41:11;18.50;99.90
42099;DHT22;27758;55.900;8.516;2023-07-29T06:43:37;18.50;99.90
42099;DHT22;27758;55.900;8.516;2023-07-29T06:46:03;18.60;99.90
42099;DHT22;27758;55.900;8.516;2023-07-29T06:48:29;18.60;99.90
42099;DHT22;27758;55.900;8.516;2023-07-29T06:50:54;18.60;99.90
42099;DHT22;27758;55.900;8.516;2023-07-29T06:53:20;18.60;99.90
42099;DHT22;27758;55.900;8.516;2023-07-29T06:55:46;18.50;99.90
42099;DHT22;27758;55.900;8.516;2023-07-29T06:58:12;18.50;99.90
42099;DHT22;27758;55.900;8.516;2023-07-29T07:00:38;18.40;99.90
42099;DHT22;27758;55.900;8.516;2023-07-29T07:03:03;18.40;99.90
42099;DHT22;27758;55.900;8.516;2023-07-29T07:05:29;18.30;99.90
42099;DHT22;27758;55.900;8.516;2023-07-29T07:07:55;18.30;99.90
42099;DHT22;27758;55.900;8.516;2023-07-29T07:10:21;18.30;99.90
42099;DHT22;27758;55.900;8.516;2023-07-29T07:12:46;18.20;99.90
42099;DHT22;27758;55.900;8.516;2023-07-29T07:15:12;18.20;99.90
42099;DHT22;27758;55.900;8.516;2023-07-29T07:17:38;18.00;99.90
42099;DHT22;27758;55.900;8.516;2023-07-29T07:20:04;18.00;99.90
42099;DHT22;27758;55.900;8.516;2023-07-29T07:22:30;17.90;99.90
42099;DHT22;27758;55.900;8.516;2023-07-29T07:24:56;17.90;99.90
42099;DHT22;27758;55.900;8.516;2023-07-29T07:27:22;17.80;99.90
42099;DHT22;27758;55.900;8.516;2023-07-29T07:29:47;17.80;99.90
42099;DHT22;27758;55.900;8.516;2023-07-29T07:32:13;17.80;99.90
42099;DHT22;27758;55.900;8.516;2023-07-29T07:34:39;17.80;99.90
42099;DHT22;27758;55.900;8.516;2023-07-29T07:37:04;17.80;99.90
42099;DHT22;27758;55.900;8.516;2023-07-29T07:39:31;17.80;99.90
42099;DHT22;27758;55.900;8.516;2023-07-29T07:41:57;17.80;99.90
42099;DHT22;27758;55.900;8.516;2023-07-29T07:44:23;17.80;99.90
42099;DHT22;27758;55.900;8.516;2023-07-29T07:46:52;17.80;99.90
42099;DHT22;27758;55.900;8.516;2023-07-29T07:49:18;17.80;99.90
42099;DHT22;27758;55.900;8.516;2023-07-29T07:51:44;17.80;99.90
42099;DHT22;27758;55.900;8.516;2023-07-29T07:54:09;17.70;99.90
42099;DHT22;27758;55.900;8.516;2023-07-29T07:56:35;17.60;99.90
42099;DHT22;27758;55.900;8.516;2023-07-29T07:59:01;17.60;99.90
42099;DHT22;27758;55.900;8.516;2023-07-29T08:01:26;17.60;99.90
42099;DHT22;27758;55.900;8.516;2023-07-29T08:03:52;17.50;99.90
42099;DHT22;27758;55.900;8.516;2023-07-29T08:06:18;17.60;99.90
42099;DHT22;27758;55.900;8.516;2023-07-29T08:08:43;17.60;99.90
42099;DHT22;27758;55.900;8.516;2023-07-29T08:11:09;17.60;99.90
42099;DHT22;27758;55.900;8.516;2023-07-29T08:13:35;17.60;99.90
42099;DHT22;27758;55.900;8.516;2023-07-29T08:16:00;17.60;99.90
42099;DHT22;27758;55.900;8.516;2023-07-29T08:18:26;17.60;99.90
42099;DHT22;27758;55.900;8.516;2023-07-29T08:20:56;17.70;99.90
42099;DHT22;27758;55.900;8.516;2023-07-29T08:23:29;17.70;99.90
42099;DHT22;27758;55.900;8.516;2023-07-29T08:25:56;17.80;99.90
42099;DHT22;27758;55.900;8.516;2023-07-29T08:28:35;17.90;99.90
42099;DHT22;27758;55.900;8.516;2023-07-29T08:31:02;17.90;99.90
42099;DHT22;27758;55.900;8.516;2023-07-29T08:33:28;18.00;99.90
42099;DHT22;27758;55.900;8.516;2023-07-29T08:35:54;18.10;99.90
42099;DHT22;27758;55.900;8.516;2023-07-29T08:38:21;18.20;99.90
42099;DHT22;27758;55.900;8.516;2023-07-29T08:40:54;18.30;99.90
42099;DHT22;27758;55.900;8.516;2023-07-29T08:43:28;18.50;99.90
42099;DHT22;27758;55.900;8.516;2023-07-29T08:45:55;18.60;99.90
42099;DHT22;27758;55.900;8.516;2023-07-29T08:48:35;18.70;99.90
42099;DHT22;27758;55.900;8.516;2023-07-29T08:51:04;18.80;99.90
42099;DHT22;27758;55.900;8.516;2023-07-29T08:53:31;18.80;99.90
42099;DHT22;27758;55.900;8.516;2023-07-29T08:55:57;18.70;99.90
42099;DHT22;27758;55.900;8.516;2023-07-29T08:58:24;18.70;99.90
42099;DHT22;27758;55.900;8.516;2023-07-29T09:00:50;18.70;99.90
42099;DHT22;27758;55.900;8.516;2023-07-29T09:03:16;18.70;99.90
42099;DHT22;27758;55.900;8.516;2023-07-29T09:05:42;18.60;99.90
42099;DHT22;27758;55.900;8.516;2023-07-29T09:08:07;18.60;99.90
42099;DHT22;27758;55.900;8.516;2023-07-29T09:10:37;18.60;99.90
42099;DHT22;27758;55.900;8.516;2023-07-29T09:13:04;18.70;99.90
42099;DHT22;27758;55.900;8.516;2023-07-29T09:15:32;18.70;99.90
42099;DHT22;27758;55.900;8.516;2023-07-29T09:17:58;18.80;99.90
42099;DHT22;27758;55.900;8.516;2023-07-29T09:20:27;18.80;99.90
42099;DHT22;27758;55.900;8.516;2023-07-29T09:22:55;18.90;99.90
42099;DHT22;27758;55.900;8.516;2023-07-29T09:25:25;18.90;99.90
42099;DHT22;27758;55.900;8.516;2023-07-29T09:27:51;18.90;99.90
42099;DHT22;27758;55.900;8.516;2023-07-29T09:30:17;18.90;99.90
42099;DHT22;27758;55.900;8.516;2023-07-29T09:32:43;18.90;99.90
42099;DHT22;27758;55.900;8.516;2023-07-29T09:35:13;18.90;99.90
42099;DHT22;27758;55.900;8.516;2023-07-29T09:37:39;18.90;99.90
42099;DHT22;27758;55.900;8.516;2023-07-29T09:40:06;19.00;99.90
42099;DHT22;27758;55.900;8.516;2023-07-29T09:42:32;19.10;99.90
42099;DHT22;27758;55.900;8.516;2023-07-29T09:44:58;19.00;99.90
42099;DHT22;27758;55.900;8.516;2023-07-29T09:47:25;19.00;99.90
42099;DHT22;27758;55.900;8.516;2023-07-29T09:49:52;19.00;99.90
42099;DHT22;27758;55.900;8.516;2023-07-29T09:52:19;19.00;99.90
42099;DHT22;27758;55.900;8.516;2023-07-29T09:54:46;18.90;99.90
42099;DHT22;27758;55.900;8.516;2023-07-29T09:57:16;18.80;99.90
42099;DHT22;27758;55.900;8.516;2023-07-29T09:59:42;18.80;99.90
42099;DHT22;27758;55.900;8.516;2023-07-29T10:02:13;18.90;99.90
42099;DHT22;27758;55.900;8.516;2023-07-29T10:04:44;19.10;99.90
42099;DHT22;27758;55.900;8.516;2023-07-29T10:07:11;19.30;99.90
42099;DHT22;27758;55.900;8.516;2023-07-29T10:09:39;19.40;99.90
42099;DHT22;27758;55.900;8.516;2023-07-29T10:12:06;19.50;99.90
42099;DHT22;27758;55.900;8.516;2023-07-29T10:14:32;19.60;99.90
42099;DHT22;27758;55.900;8.516;2023-07-29T10:17:00;19.70;99.90
42099;DHT22;27758;55.900;8.516;2023-07-29T10:19:26;19.70;99.90
42099;DHT22;27758;55.900;8.516;2023-07-29T10:21:54;19.80;99.90
42099;DHT22;27758;55.900;8.516;2023-07-29T10:24:25;19.80;99.90
42099;DHT22;27758;55.900;8.516;2023-07-29T10:26:58;19.80;99.90
42099;DHT22;27758;55.900;8.516;2023-07-29T10:29:24;19.90;99.90
42099;DHT22;27758;55.900;8.516;2023-07-29T10:31:52;19.90;99.90
42099;DHT22;27758;55.900;8.516;2023-07-29T10:34:21;20.00;99.90
42099;DHT22;27758;55.900;8.516;2023-07-29T10:36:49;20.10;99.90
42099;DHT22;27758;55.900;8.516;2023-07-29T10:39:15;20.00;99.90
42099;DHT22;27758;55.900;8.516;2023-07-29T10:42:00;20.00;99.90
42099;DHT22;27758;55.900;8.516;2023-07-29T10:44:46;20.10;99.90
42099;DHT22;27758;55.900;8.516;2023-07-29T10:49:45;21.20;99.90
42099;DHT22;27758;55.900;8.516;2023-07-29T10:52:32;21.70;99.90
42099;DHT22;27758;55.900;8.516;2023-07-29T10:55:03;22.10;99.90
42099;DHT22;27758;55.900;8.516;2023-07-29T10:57:39;22.20;99.90
42099;DHT22;27758;55.900;8.516;2023-07-29T11:00:07;22.20;99.90
42099;DHT22;27758;55.900;8.516;2023-07-29T11:02:36;22.40;99.90
42099;DHT22;27758;55.900;8.516;2023-07-29T11:05:07;22.70;99.90
42099;DHT22;27758;55.900;8.516;2023-07-29T11:07:46;23.10;99.90
42099;DHT22;27758;55.900;8.516;2023-07-29T11:10:15;22.90;99.90
42099;DHT22;27758;55.900;8.516;2023-07-29T11:12:47;22.40;99.90
42099;DHT22;27758;55.900;8.516;2023-07-29T11:15:25;22.00;99.90
42099;DHT22;27758;55.900;8.516;2023-07-29T11:20:28;21.60;99.90
42099;DHT22;27758;55.900;8.516;2023-07-29T11:22:56;21.30;99.90
42099;DHT22;27758;55.900;8.516;2023-07-29T11:25:24;21.10;99.90
42099;DHT22;27758;55.900;8.516;2023-07-29T11:27:52;20.90;99.90
42099;DHT22;27758;55.900;8.516;2023-07-29T11:30:18;20.60;99.90
42099;DHT22;27758;55.900;8.516;2023-07-29T11:32:45;20.50;99.90
42099;DHT22;27758;55.900;8.516;2023-07-29T11:35:16;20.40;99.90
42099;DHT22;27758;55.900;8.516;2023-07-29T11:37:44;20.30;99.90
42099;DHT22;27758;55.900;8.516;2023-07-29T11:40:20;20.10;99.90
42099;DHT22;27758;55.900;8.516;2023-07-29T11:42:47;20.00;99.90
42099;DHT22;27758;55.900;8.516;2023-07-29T11:45:14;19.90;99.90
42099;DHT22;27758;55.900;8.516;2023-07-29T11:47:40;20.00;99.90
42099;DHT22;27758;55.900;8.516;2023-07-29T11:50:07;20.10;99.90
42099;DHT22;27758;55.900;8.516;2023-07-29T11:52:37;20.20;99.90
42099;DHT22;27758;55.900;8.516;2023-07-29T11:55:05;20.40;99.90
42099;DHT22;27758;55.900;8.516;2023-07-29T11:57:34;20.60;99.90
42099;DHT22;27758;55.900;8.516;2023-07-29T12:00:04;21.10;99.90
42099;DHT22;27758;55.900;8.516;2023-07-29T12:02:32;21.30;99.90
42099;DHT22;27758;55.900;8.516;2023-07-29T12:05:06;21.60;99.90
42099;DHT22;27758;55.900;8.516;2023-07-29T12:07:32;21.50;99.90
42099;DHT22;27758;55.900;8.516;2023-07-29T12:10:02;21.40;99.90
42099;DHT22;27758;55.900;8.516;2023-07-29T12:12:29;21.30;99.90
42099;DHT22;27758;55.900;8.516;2023-07-29T12:14:55;21.10;99.90
42099;DHT22;27758;55.900;8.516;2023-07-29T12:17:20;21.00;99.90
42099;DHT22;27758;55.900;8.516;2023-07-29T12:19:46;21.40;99.90
42099;DHT22;27758;55.900;8.516;2023-07-29T12:22:17;21.90;99.90
42099;DHT22;27758;55.900;8.516;2023-07-29T12:24:43;21.90;99.90
42099;DHT22;27758;55.900;8.516;2023-07-29T12:27:13;21.70;99.90
42099;DHT22;27758;55.900;8.516;2023-07-29T12:29:43;21.50;99.90
42099;DHT22;27758;55.900;8.516;2023-07-29T12:32:09;21.50;99.90
42099;DHT22;27758;55.900;8.516;2023-07-29T12:34:37;21.50;99.90
42099;DHT22;27758;55.900;8.516;2023-07-29T12:37:05;21.60;99.90
42099;DHT22;27758;55.900;8.516;2023-07-29T12:39:39;21.60;99.90
42099;DHT22;27758;55.900;8.516;2023-07-29T12:42:05;21.60;99.90
42099;DHT22;27758;55.900;8.516;2023-07-29T12:44:32;21.60;99.90
42099;DHT22;27758;55.900;8.516;2023-07-29T12:47:00;21.90;99.90
42099;DHT22;27758;55.900;8.516;2023-07-29T12:49:26;22.60;99.90
42099;DHT22;27758;55.900;8.516;2023-07-29T12:51:54;23.20;99.90
42099;DHT22;27758;55.900;8.516;2023-07-29T12:54:19;23.50;99.90
42099;DHT22;27758;55.900;8.516;2023-07-29T12:56:45;23.40;99.90
42099;DHT22;27758;55.900;8.516;2023-07-29T12:59:10;23.10;99.90
42099;DHT22;27758;55.900;8.516;2023-07-29T13:01:36;22.90;99.90
42099;DHT22;27758;55.900;8.516;2023-07-29T13:04:02;23.10;99.90
42099;DHT22;27758;55.900;8.516;2023-07-29T13:06:27;23.50;99.90
42099;DHT22;27758;55.900;8.516;2023-07-29T13:08:53;23.90;99.90
42099;DHT22;27758;55.900;8.516;2023-07-29T13:11:19;24.10;99.90
42099;DHT22;27758;55.900;8.516;2023-07-29T13:13:45;24.10;99.90
42099;DHT22;27758;55.900;8.516;2023-07-29T13:16:11;24.00;99.90
42099;DHT22;27758;55.900;8.516;2023-07-29T13:18:37;23.80;99.90
42099;DHT22;27758;55.900;8.516;2023-07-29T13:21:03;23.40;99.90
42099;DHT22;27758;55.900;8.516;2023-07-29T13:23:28;23.10;99.90
42099;DHT22;27758;55.900;8.516;2023-07-29T13:25:55;22.80;99.90
42099;DHT22;27758;55.900;8.516;2023-07-29T13:28:21;22.50;99.90
42099;DHT22;27758;55.900;8.516;2023-07-29T13:30:47;22.20;99.90
42099;DHT22;27758;55.900;8.516;2023-07-29T13:33:13;22.00;99.90
42099;DHT22;27758;55.900;8.516;2023-07-29T13:35:38;21.80;99.90
42099;DHT22;27758;55.900;8.516;2023-07-29T13:38:04;21.90;99.90
42099;DHT22;27758;55.900;8.516;2023-07-29T13:40:31;21.90;99.90
42099;DHT22;27758;55.900;8.516;2023-07-29T13:42:57;21.80;99.90
42099;DHT22;27758;55.900;8.516;2023-07-29T13:45:23;21.60;99.90
42099;DHT22;27758;55.900;8.516;2023-07-29T13:47:49;21.80;99.90
42099;DHT22;27758;55.900;8.516;2023-07-29T13:50:16;21.80;99.90
42099;DHT22;27758;55.900;8.516;2023-07-29T13:52:43;21.90;99.90
42099;DHT22;27758;55.900;8.516;2023-07-29T13:55:09;21.90;99.90
42099;DHT22;27758;55.900;8.516;2023-07-29T13:57:35;21.80;99.90
42099;DHT22;27758;55.900;8.516;2023-07-29T14:00:01;21.70;99.90
42099;DHT22;27758;55.900;8.516;2023-07-29T14:02:27;21.60;99.90
42099;DHT22;27758;55.900;8.516;2023-07-29T14:04:53;21.50;99.90
42099;DHT22;27758;55.900;8.516;2023-07-29T14:07:19;21.50;99.90
42099;DHT22;27758;55.900;8.516;2023-07-29T14:09:45;21.50;99.90
42099;DHT22;27758;55.900;8.516;2023-07-29T14:12:11;21.50;99.90
42099;DHT22;27758;55.900;8.516;2023-07-29T14:14:39;21.50;99.90
42099;DHT22;27758;55.900;8.516;2023-07-29T14:17:04;21.40;99.90
42099;DHT22;27758;55.900;8.516;2023-07-29T14:19:31;21.50;99.90
42099;DHT22;27758;55.900;8.516;2023-07-29T14:21:57;21.60;99.90
42099;DHT22;27758;55.900;8.516;2023-07-29T14:24:23;21.40;99.90
42099;DHT22;27758;55.900;8.516;2023-07-29T14:26:49;21.30;99.90
42099;DHT22;27758;55.900;8.516;2023-07-29T14:29:15;21.20;99.90
42099;DHT22;27758;55.900;8.516;2023-07-29T14:31:40;21.20;99.90
42099;DHT22;27758;55.900;8.516;2023-07-29T14:34:06;21.10;99.90
42099;DHT22;27758;55.900;8.516;2023-07-29T14:36:32;21.00;99.90
42099;DHT22;27758;55.900;8.516;2023-07-29T14:38:57;21.00;99.90
42099;DHT22;27758;55.900;8.516;2023-07-29T14:41:23;21.00;99.90
42099;DHT22;27758;55.900;8.516;2023-07-29T14:43:49;20.90;99.90
42099;DHT22;27758;55.900;8.516;2023-07-29T14:46:15;20.70;99.90
42099;DHT22;27758;55.900;8.516;2023-07-29T14:48:40;20.70;99.90
42099;DHT22;27758;55.900;8.516;2023-07-29T14:51:06;20.50;99.90
42099;DHT22;27758;55.900;8.516;2023-07-29T14:53:32;20.40;99.90
42099;DHT22;27758;55.900;8.516;2023-07-29T14:55:57;20.40;99.90
42099;DHT22;27758;55.900;8.516;2023-07-29T14:58:23;20.40;99.90
42099;DHT22;27758;55.900;8.516;2023-07-29T15:00:53;20.50;99.90
42099;DHT22;27758;55.900;8.516;2023-07-29T15:03:19;20.50;99.90
42099;DHT22;27758;55.900;8.516;2023-07-29T15:05:45;20.60;99.90
42099;DHT22;27758;55.900;8.516;2023-07-29T15:08:10;20.60;99.90
42099;DHT22;27758;55.900;8.516;2023-07-29T15:10:36;20.50;99.90
42099;DHT22;27758;55.900;8.516;2023-07-29T15:13:02;20.40;99.90
42099;DHT22;27758;55.900;8.516;2023-07-29T15:15:28;20.30;99.90
42099;DHT22;27758;55.900;8.516;2023-07-29T15:17:53;20.10;99.90
42099;DHT22;27758;55.900;8.516;2023-07-29T15:20:19;20.10;99.90
42099;DHT22;27758;55.900;8.516;2023-07-29T15:22:45;20.10;99.90
42099;DHT22;27758;55.900;8.516;2023-07-29T15:25:11;20.10;99.90
42099;DHT22;27758;55.900;8.516;2023-07-29T15:27:37;20.20;99.90
42099;DHT22;27758;55.900;8.516;2023-07-29T15:30:03;20.20;99.90
42099;DHT22;27758;55.900;8.516;2023-07-29T15:32:29;20.20;99.90
42099;DHT22;27758;55.900;8.516;2023-07-29T15:34:55;20.20;99.90
42099;DHT22;27758;55.900;8.516;2023-07-29T15:37:21;20.30;99.90